createdAt,value
2022-10-09T00:02:33.466Z,100878.06
2022-10-09T00:05:36.572Z,100875.69
2022-10-09T00:08:40.028Z,100868.44
2022-10-09T00:11:42.892Z,100863.84
2022-10-09T00:14:45.464Z,100886.81
2022-10-09T00:17:48.371Z,100873.84
2022-10-09T00:20:51.031Z,100878.53
2022-10-09T00:23:56.061Z,100867.47
2022-10-09T00:26:58.600Z,100871.53
2022-10-09T00:30:01.805Z,100879.12
2022-10-09T00:33:04.426Z,100875.34
2022-10-09T00:36:26.785Z,100864.72
2022-10-09T00:39:29.427Z,100869.34
2022-10-09T00:42:32.314Z,100868.53
2022-10-09T00:45:34.944Z,100875.41
2022-10-09T00:48:37.915Z,100874.69
2022-10-09T00:51:42.538Z,100871.84
2022-10-09T00:54:45.471Z,100870.19
2022-10-09T00:57:48.123Z,100874.16
2022-10-09T01:00:51.048Z,100872.06
2022-10-09T01:03:53.697Z,100872.75
2022-10-09T01:07:14.765Z,100869.72
2022-10-09T01:10:46.080Z,100869.12
2022-10-09T01:14:07.211Z,100873.00
2022-10-09T01:17:36.874Z,100870.91
2022-10-09T01:20:57.276Z,100883.25
2022-10-09T01:24:13.236Z,100886.22
2022-10-09T01:27:22.164Z,100886.28
2022-10-09T01:30:24.897Z,100896.62
2022-10-09T01:33:30.750Z,100892.47
2022-10-09T01:36:35.396Z,100888.06
2022-10-09T01:39:39.906Z,100892.31
2022-10-09T01:42:43.119Z,100890.59
2022-10-09T01:45:47.808Z,100889.03
2022-10-09T01:49:30.836Z,100885.66
2022-10-09T01:52:42.438Z,100887.25
2022-10-09T01:55:45.089Z,100886.19
2022-10-09T01:59:02.212Z,100884.50
2022-10-09T02:02:07.312Z,100884.69
2022-10-09T02:05:15.114Z,100895.66
2022-10-09T02:08:20.635Z,100888.22
2022-10-09T02:11:27.209Z,100898.81
2022-10-09T02:14:30.027Z,100901.56
2022-10-09T02:17:37.484Z,100898.66
2022-10-09T02:20:45.396Z,100902.91
2022-10-09T02:23:51.037Z,100903.50
2022-10-09T02:26:55.217Z,100910.59
2022-10-09T02:29:59.547Z,100915.72
2022-10-09T02:33:02.119Z,100899.66
2022-10-09T02:36:05.356Z,100915.56
2022-10-09T02:39:08.464Z,100902.84
2022-10-09T02:42:11.399Z,100914.06
2022-10-09T02:45:14.063Z,100923.16
2022-10-09T02:48:17.037Z,100925.37
2022-10-09T02:51:19.960Z,100927.31
2022-10-09T02:54:22.814Z,100937.56
2022-10-09T02:57:25.371Z,100944.97
2022-10-09T03:00:28.421Z,100942.13
2022-10-09T03:03:31.825Z,100941.09
2022-10-09T03:06:34.998Z,100945.50
2022-10-09T03:09:37.540Z,100942.75
2022-10-09T03:12:40.427Z,100942.03
2022-10-09T03:15:42.997Z,100933.81
2022-10-09T03:18:47.456Z,100937.34
2022-10-09T03:21:49.964Z,100933.00
2022-10-09T03:24:52.868Z,100943.09
2022-10-09T03:27:55.480Z,100937.25
2022-10-09T03:30:58.474Z,100940.25
2022-10-09T03:34:01.171Z,100937.09
2022-10-09T03:37:04.912Z,100928.44
2022-10-09T03:40:07.955Z,100926.13
2022-10-09T03:43:10.832Z,100932.94
2022-10-09T03:46:13.476Z,100938.03
2022-10-09T03:49:16.485Z,100939.97
2022-10-09T03:52:19.005Z,100940.44
2022-10-09T03:55:21.844Z,100945.47
2022-10-09T03:58:24.647Z,100942.56
2022-10-09T04:01:27.630Z,100941.31
2022-10-09T04:04:30.580Z,100955.03
2022-10-09T04:07:33.173Z,100957.22
2022-10-09T04:10:41.487Z,100959.44
2022-10-09T04:13:44.049Z,100955.87
2022-10-09T04:16:46.932Z,100958.81
2022-10-09T04:19:49.666Z,100962.16
2022-10-09T04:22:52.942Z,100961.59
2022-10-09T04:25:56.875Z,100951.84
2022-10-09T04:29:00.307Z,100950.66
2022-10-09T04:32:02.906Z,100949.16
2022-10-09T04:35:06.539Z,100950.72
2022-10-09T04:38:09.097Z,100932.59
2022-10-09T04:41:12.005Z,100948.44
2022-10-09T04:44:14.655Z,100950.72
2022-10-09T04:47:17.661Z,100928.25
2022-10-09T04:50:20.228Z,100955.16
2022-10-09T04:53:34.581Z,100958.44
2022-10-09T04:56:37.633Z,100977.28
2022-10-09T04:59:40.611Z,100977.94
2022-10-09T05:02:43.193Z,100985.47
2022-10-09T05:05:46.057Z,100991.41
2022-10-09T05:08:49.400Z,100997.31
2022-10-09T05:11:52.315Z,101000.88
2022-10-09T05:14:54.871Z,101011.56
2022-10-09T05:17:57.854Z,101007.00
2022-10-09T05:21:03.728Z,101006.44
2022-10-09T05:24:10.241Z,101009.00
2022-10-09T05:27:13.279Z,101000.47
2022-10-09T05:30:16.253Z,101005.22
2022-10-09T05:33:19.054Z,101004.59
2022-10-09T05:36:22.364Z,100990.50
2022-10-09T05:39:25.015Z,101002.22
2022-10-09T05:42:27.872Z,101019.53
2022-10-09T05:45:30.455Z,101017.22
2022-10-09T05:48:33.458Z,101025.91
2022-10-09T05:51:39.330Z,101021.84
2022-10-09T05:54:42.313Z,101026.16
2022-10-09T05:57:44.887Z,101035.38
2022-10-09T06:00:47.692Z,101035.00
2022-10-09T06:03:52.336Z,101041.78
2022-10-09T06:06:54.982Z,101041.19
2022-10-09T06:09:57.835Z,101033.81
2022-10-09T06:13:00.408Z,101025.06
2022-10-09T06:16:03.268Z,101032.34
2022-10-09T06:19:07.445Z,101044.66
2022-10-09T06:22:10.363Z,101032.47
2022-10-09T06:25:12.946Z,101043.22
2022-10-09T06:28:15.916Z,101057.16
2022-10-09T06:31:24.398Z,101060.03
2022-10-09T06:34:27.478Z,101062.91
2022-10-09T06:37:30.011Z,101067.28
2022-10-09T06:40:37.133Z,101079.59
2022-10-09T06:43:40.453Z,101081.25
2022-10-09T06:46:44.049Z,101089.62
2022-10-09T06:49:46.635Z,101095.56
2022-10-09T06:52:50.341Z,101106.94
2022-10-09T06:55:55.265Z,101107.75
2022-10-09T06:59:04.316Z,101110.78
2022-10-09T07:02:06.947Z,101110.72
2022-10-09T07:05:10.048Z,101113.81
2022-10-09T07:08:12.539Z,101114.19
2022-10-09T07:11:23.625Z,101108.69
2022-10-09T07:14:26.393Z,101119.38
2022-10-09T07:17:29.293Z,101122.41
2022-10-09T07:20:31.916Z,101123.97
2022-10-09T07:23:35.990Z,101116.47
2022-10-09T07:26:41.517Z,101123.72
2022-10-09T07:29:44.477Z,101112.63
2022-10-09T07:32:47.269Z,101119.09
2022-10-09T07:35:57.737Z,101115.13
2022-10-09T07:39:00.413Z,101122.88
2022-10-09T07:42:03.796Z,101133.75
2022-10-09T07:45:06.751Z,101118.47
2022-10-09T07:48:09.924Z,101122.53
2022-10-09T07:51:16.319Z,101122.66
2022-10-09T07:54:19.186Z,101129.88
2022-10-09T07:57:21.787Z,101138.78
2022-10-09T08:00:24.760Z,101135.69
2022-10-09T08:03:27.606Z,101133.81
2022-10-09T08:06:31.118Z,101142.16
2022-10-09T08:09:33.995Z,101124.41
2022-10-09T08:12:36.536Z,101157.38
2022-10-09T08:15:43.832Z,101149.50
2022-10-09T08:18:47.590Z,101162.16
2022-10-09T08:21:50.590Z,101156.31
2022-10-09T08:24:53.244Z,101148.81
2022-10-09T08:27:56.389Z,101147.28
2022-10-09T08:30:59.169Z,101152.03
2022-10-09T08:34:03.392Z,101153.62
2022-10-09T08:37:06.174Z,101151.69
2022-10-09T08:40:17.301Z,101148.13
2022-10-09T08:43:29.970Z,101154.84
2022-10-09T08:46:48.010Z,101150.91
2022-10-09T08:49:57.808Z,101166.34
2022-10-09T08:53:26.634Z,101157.66
2022-10-09T08:56:30.346Z,101157.25
2022-10-09T08:59:33.348Z,101155.31
2022-10-09T09:03:06.186Z,101156.06
2022-10-09T09:06:51.034Z,101166.72
2022-10-09T09:09:56.356Z,101162.31
2022-10-09T09:13:36.442Z,101159.19
2022-10-09T09:16:59.158Z,101173.00
2022-10-09T09:20:32.054Z,101156.78
2022-10-09T09:23:41.156Z,101170.16
2022-10-09T09:26:48.997Z,101165.41
2022-10-09T09:30:13.266Z,101177.19
2022-10-09T09:33:41.118Z,101168.50
2022-10-09T09:36:54.944Z,101176.31
2022-10-09T09:43:23.532Z,101175.16
2022-10-09T09:46:30.382Z,101170.09
2022-10-09T09:49:32.987Z,101180.28
2022-10-09T09:52:40.069Z,101178.31
2022-10-09T09:55:42.711Z,101166.75
2022-10-09T09:58:51.247Z,101162.44
2022-10-09T10:02:13.328Z,101167.94
2022-10-09T10:05:22.090Z,101161.94
2022-10-09T10:08:28.049Z,101165.16
2022-10-09T10:11:35.021Z,101172.94
2022-10-09T10:14:37.590Z,101172.19
2022-10-09T10:17:40.719Z,101172.84
2022-10-09T10:20:46.547Z,101184.25
2022-10-09T10:24:09.036Z,101175.09
2022-10-09T10:27:33.615Z,101164.12
2022-10-09T10:30:37.957Z,101169.28
2022-10-09T10:33:45.100Z,101158.97
2022-10-09T10:36:54.605Z,101169.63
2022-10-09T10:40:23.852Z,101166.22
2022-10-09T10:43:35.901Z,101164.22
2022-10-09T10:46:49.050Z,101164.59
2022-10-09T10:49:52.570Z,101167.72
2022-10-09T10:53:20.033Z,101162.09
2022-10-09T10:56:27.503Z,101175.47
2022-10-09T10:59:36.384Z,101176.41
2022-10-09T11:02:58.091Z,101164.12
2022-10-09T11:06:18.655Z,101175.41
2022-10-09T11:09:57.396Z,101174.28
2022-10-09T11:13:12.484Z,101163.66
2022-10-09T11:16:36.567Z,101167.59
2022-10-09T11:20:05.738Z,101162.56
2022-10-09T11:23:27.052Z,101170.28
2022-10-09T11:26:48.729Z,101167.84
2022-10-09T11:30:01.707Z,101158.38
2022-10-09T11:33:26.975Z,101152.72
2022-10-09T11:36:44.004Z,101146.28
2022-10-09T11:39:46.938Z,101144.19
2022-10-09T11:43:01.856Z,101150.38
2022-10-09T11:46:20.379Z,101143.69
2022-10-09T11:49:31.074Z,101155.34
2022-10-09T11:53:01.331Z,101150.59
2022-10-09T11:56:07.459Z,101134.31
2022-10-09T11:59:23.344Z,101125.09
2022-10-09T12:02:29.791Z,101130.47
2022-10-09T12:05:43.079Z,101149.81
2022-10-09T12:09:01.612Z,101144.69
2022-10-09T12:12:07.997Z,101118.91
2022-10-09T12:15:24.567Z,101139.56
2022-10-09T12:18:32.416Z,101137.59
2022-10-09T12:21:40.926Z,101133.19
2022-10-09T12:24:53.702Z,101128.19
2022-10-09T12:27:58.652Z,101131.84
2022-10-09T12:31:05.419Z,101135.25
2022-10-09T12:34:26.678Z,101125.97
2022-10-09T12:37:35.369Z,101118.50
2022-10-09T12:40:38.491Z,101132.97
2022-10-09T12:43:45.629Z,101124.38
2022-10-09T12:46:48.313Z,101130.00
2022-10-09T12:50:17.274Z,101125.88
2022-10-09T12:53:30.025Z,101115.72
2022-10-09T12:56:36.864Z,101116.44
2022-10-09T12:59:40.215Z,101127.09
2022-10-09T13:02:43.290Z,101123.53
2022-10-09T13:05:46.977Z,101130.41
2022-10-09T13:08:58.065Z,101124.94
2022-10-09T13:12:28.560Z,101129.00
2022-10-09T13:15:36.992Z,101120.41
2022-10-09T13:18:39.590Z,101115.66
2022-10-09T13:21:42.432Z,101113.94
2022-10-09T13:24:45.102Z,101111.41
2022-10-09T13:27:48.221Z,101122.41
2022-10-09T13:30:51.344Z,101118.94
2022-10-09T13:33:54.299Z,101123.78
2022-10-09T13:36:57.089Z,101117.84
2022-10-09T13:40:00.391Z,101117.91
2022-10-09T13:43:03.094Z,101109.13
2022-10-09T13:46:06.462Z,101109.09
2022-10-09T13:49:09.148Z,101111.19
2022-10-09T13:52:12.343Z,101102.47
2022-10-09T13:55:15.492Z,101109.56
2022-10-09T13:58:18.411Z,101111.50
2022-10-09T14:01:21.423Z,101103.56
2022-10-09T14:04:24.454Z,101107.22
2022-10-09T14:07:27.413Z,101108.03
2022-10-09T14:10:30.300Z,101095.81
2022-10-09T14:13:33.540Z,101113.25
2022-10-09T14:16:36.380Z,101095.81
2022-10-09T14:19:38.947Z,101091.53
2022-10-09T14:22:42.147Z,101103.84
2022-10-09T14:25:44.685Z,101096.75
2022-10-09T14:28:48.306Z,101108.25
2022-10-09T14:31:51.682Z,101102.34
2022-10-09T14:34:54.840Z,101080.25
2022-10-09T14:37:58.468Z,101095.28
2022-10-09T14:41:01.921Z,101092.56
2022-10-09T14:44:05.028Z,101090.66
2022-10-09T14:47:07.912Z,101098.56
2022-10-09T14:50:10.649Z,101100.56
2022-10-09T14:53:13.492Z,101097.78
2022-10-09T14:56:21.093Z,101099.03
2022-10-09T14:59:24.646Z,101098.28
2022-10-09T15:02:27.215Z,101097.94
2022-10-09T15:05:30.695Z,101083.69
2022-10-09T15:08:35.743Z,101093.94
2022-10-09T15:11:38.660Z,101096.38
2022-10-09T15:14:41.200Z,101088.91
2022-10-09T15:17:44.012Z,101085.72
2022-10-09T15:20:47.032Z,101097.28
2022-10-09T15:23:50.822Z,101087.84
2022-10-09T15:26:53.439Z,101096.19
2022-10-09T15:29:56.249Z,101098.19
2022-10-09T15:33:01.988Z,101099.03
2022-10-09T15:36:04.927Z,101105.81
2022-10-09T15:39:09.108Z,101096.69
2022-10-09T15:42:12.056Z,101117.28
2022-10-09T15:45:14.623Z,101117.28
2022-10-09T15:48:20.447Z,101125.19
2022-10-09T15:51:24.304Z,101131.09
2022-10-09T15:54:27.829Z,101134.66
2022-10-09T15:57:30.419Z,101130.25
2022-10-09T16:00:42.024Z,101115.50
2022-10-09T16:03:46.024Z,101128.50
2022-10-09T16:06:49.244Z,101139.50
2022-10-09T16:09:52.576Z,101132.28
2022-10-09T16:12:55.367Z,101118.00
2022-10-09T16:15:59.068Z,101132.56
2022-10-09T16:19:03.994Z,101112.25
2022-10-09T16:22:07.119Z,101156.94
2022-10-09T16:25:10.189Z,101151.72
2022-10-09T16:28:13.312Z,101147.38
2022-10-09T16:31:24.485Z,101168.69
2022-10-09T16:34:27.560Z,101163.97
2022-10-09T16:37:33.456Z,101177.53
2022-10-09T16:41:02.494Z,101173.28
2022-10-09T16:44:13.089Z,101180.84
2022-10-09T16:47:15.911Z,101176.94
2022-10-09T16:50:18.604Z,101182.84
2022-10-09T16:53:21.435Z,101191.19
2022-10-09T16:56:27.034Z,101197.47
2022-10-09T16:59:30.060Z,101193.09
2022-10-09T17:02:33.419Z,101189.87
2022-10-09T17:05:40.786Z,101187.47
2022-10-09T17:08:43.435Z,101191.00
2022-10-09T17:11:46.406Z,101204.75
2022-10-09T17:14:49.104Z,101201.94
2022-10-09T17:17:52.257Z,101187.66
2022-10-09T17:20:55.188Z,101189.19
2022-10-09T17:24:00.490Z,101198.59
2022-10-09T17:27:04.897Z,101206.87
2022-10-09T17:30:08.539Z,101213.50
2022-10-09T17:33:11.105Z,101215.88
2022-10-09T17:36:17.744Z,101207.47
2022-10-09T17:39:20.313Z,101203.81
2022-10-09T17:42:24.774Z,101209.66
2022-10-09T17:45:27.304Z,101205.41
2022-10-09T17:48:32.948Z,101209.41
2022-10-09T17:51:39.536Z,101201.03
2022-10-09T17:54:42.420Z,101209.31
2022-10-09T17:57:44.988Z,101166.41
2022-10-09T18:00:48.852Z,101206.09
2022-10-09T18:03:52.373Z,101206.78
2022-10-09T18:06:56.555Z,101225.25
2022-10-09T18:09:59.471Z,101222.50
2022-10-09T18:13:02.053Z,101220.09
2022-10-09T18:16:13.889Z,101223.13
2022-10-09T18:19:21.720Z,101221.56
2022-10-09T18:22:27.727Z,101221.91
2022-10-09T18:25:33.660Z,101225.41
2022-10-09T18:28:37.094Z,101227.59
2022-10-09T18:31:39.918Z,101229.25
2022-10-09T18:34:46.360Z,101237.34
2022-10-09T18:37:49.367Z,101241.13
2022-10-09T18:40:52.259Z,101242.28
2022-10-09T18:43:55.159Z,101246.44
2022-10-09T18:46:59.122Z,101241.19
2022-10-09T18:50:06.389Z,101233.87
2022-10-09T18:53:10.841Z,101221.31
2022-10-09T18:56:14.476Z,101243.19
2022-10-09T18:59:21.636Z,101258.09
2022-10-09T19:02:27.186Z,101256.19
2022-10-09T19:05:30.241Z,101263.19
2022-10-09T19:08:34.837Z,101261.59
2022-10-09T19:11:38.273Z,101266.22
2022-10-09T19:14:41.194Z,101273.66
2022-10-09T19:17:44.159Z,101239.47
2022-10-09T19:20:47.946Z,101265.03
2022-10-09T19:23:52.640Z,101275.56
2022-10-09T19:26:55.251Z,101282.56
2022-10-09T19:29:58.300Z,101289.66
2022-10-09T19:33:00.900Z,101269.53
2022-10-09T19:36:04.750Z,101263.94
2022-10-09T19:39:08.330Z,101295.94
2022-10-09T19:42:11.134Z,101306.22
2022-10-09T19:45:13.720Z,101323.81
2022-10-09T19:48:18.092Z,101325.63
2022-10-09T19:51:26.477Z,101298.25
2022-10-09T19:54:31.832Z,101310.81
2022-10-09T19:57:34.436Z,101311.37
2022-10-09T20:00:46.639Z,101310.22
2022-10-09T20:04:07.737Z,101313.69
2022-10-09T20:07:12.638Z,101322.75
2022-10-09T20:10:16.476Z,101323.47
2022-10-09T20:13:19.061Z,101314.69
2022-10-09T20:16:22.456Z,101311.06
2022-10-09T20:19:25.163Z,101314.44
2022-10-09T20:22:28.013Z,101312.84
2022-10-09T20:25:30.732Z,101305.94
2022-10-09T20:28:35.962Z,101307.69
2022-10-09T20:31:39.515Z,101304.44
2022-10-09T20:34:42.443Z,101317.41
2022-10-09T20:37:45.012Z,101306.66
2022-10-09T20:40:48.018Z,101297.03
2022-10-09T20:43:53.071Z,101293.66
2022-10-09T20:46:56.932Z,101286.31
2022-10-09T20:49:59.585Z,101306.31
2022-10-09T20:53:02.541Z,101319.44
2022-10-09T20:56:08.835Z,101325.28
2022-10-09T20:59:13.838Z,101312.88
2022-10-09T21:02:16.483Z,101323.69
2022-10-09T21:05:19.390Z,101322.03
2022-10-09T21:08:22.007Z,101316.78
2022-10-09T21:11:25.527Z,101321.84
2022-10-09T21:14:28.141Z,101304.87
2022-10-09T21:17:31.153Z,101301.31
2022-10-09T21:20:37.359Z,101308.88
2022-10-09T21:23:41.344Z,101305.59
2022-10-09T21:26:47.021Z,101311.87
2022-10-09T21:29:49.915Z,101308.00
2022-10-09T21:32:52.722Z,101312.41
2022-10-09T21:35:56.068Z,101304.66
2022-10-09T21:38:59.026Z,101317.34
2022-10-09T21:42:01.896Z,101319.28
2022-10-09T21:45:04.764Z,101313.25
2022-10-09T21:48:08.364Z,101318.97
2022-10-09T21:51:10.999Z,101309.78
2022-10-09T21:54:14.269Z,101324.47
2022-10-09T21:57:17.099Z,101321.75
2022-10-09T22:00:26.267Z,101320.44
2022-10-09T22:03:32.316Z,101318.50
2022-10-09T22:06:34.892Z,101295.91
2022-10-09T22:09:38.089Z,101308.69
2022-10-09T22:12:40.660Z,101318.06
2022-10-09T22:15:48.855Z,101321.59
2022-10-09T22:18:53.406Z,101330.38
2022-10-09T22:21:56.249Z,101338.16
2022-10-09T22:25:00.377Z,101339.41
2022-10-09T22:28:03.811Z,101333.72
2022-10-09T22:31:15.196Z,101330.25
2022-10-09T22:34:18.514Z,101320.44
2022-10-09T22:37:21.095Z,101321.13
2022-10-09T22:40:24.431Z,101323.94
2022-10-09T22:43:26.956Z,101332.50
2022-10-09T22:46:36.486Z,101328.94
2022-10-09T22:49:39.101Z,101318.31
2022-10-09T22:52:42.043Z,101330.19
2022-10-09T22:55:44.558Z,101327.53
2022-10-09T22:58:48.953Z,101331.53
2022-10-09T23:01:55.768Z,101330.16
2022-10-09T23:04:58.706Z,101327.53
2022-10-09T23:08:01.253Z,101330.91
2022-10-09T23:11:04.245Z,101330.75
2022-10-09T23:14:06.917Z,101318.37
2022-10-09T23:17:09.828Z,101326.09
2022-10-09T23:20:12.369Z,101331.31
2022-10-09T23:23:15.311Z,101329.34
2022-10-09T23:26:21.315Z,101327.66
2022-10-09T23:29:24.568Z,101320.00
2022-10-09T23:32:27.215Z,101319.22
2022-10-09T23:35:30.169Z,101315.16
2022-10-09T23:38:33.374Z,101329.41
2022-10-09T23:41:37.867Z,101320.53
2022-10-09T23:44:40.528Z,101322.69
2022-10-09T23:47:43.576Z,101312.47
2022-10-09T23:50:48.766Z,101318.16
2022-10-09T23:53:52.143Z,101319.34
2022-10-09T23:56:54.753Z,101326.34
2022-10-09T23:59:57.621Z,101317.56
